sensor_id;sensor_type;location;lat;lon;timestamp;temperature;humidity
10431;DHT22;5262;59.958;17.726;2024-02-21T00:00:15;-0.90;99.90
10431;DHT22;5262;59.958;17.726;2024-02-21T00:02:41;-0.90;99.90
10431;DHT22;5262;59.958;17.726;2024-02-21T00:05:07;-0.90;99.90
10431;DHT22;5262;59.958;17.726;2024-02-21T00:07:32;-0.90;99.90
10431;DHT22;5262;59.958;17.726;2024-02-21T00:09:58;-0.90;99.90
10431;DHT22;5262;59.958;17.726;2024-02-21T00:12:24;-0.90;99.90
10431;DHT22;5262;59.958;17.726;2024-02-21T00:14:49;-0.80;99.90
10431;DHT22;5262;59.958;17.726;2024-02-21T00:17:15;-0.90;99.90
10431;DHT22;5262;59.958;17.726;2024-02-21T00:19:41;-0.90;99.90
10431;DHT22;5262;59.958;17.726;2024-02-21T00:22:06;-0.80;99.90
10431;DHT22;5262;59.958;17.726;2024-02-21T00:24:32;-0.80;99.90
10431;DHT22;5262;59.958;17.726;2024-02-21T00:26:58;-0.80;99.90
10431;DHT22;5262;59.958;17.726;2024-02-21T00:29:23;-0.80;99.90
10431;DHT22;5262;59.958;17.726;2024-02-21T00:31:49;-0.80;99.90
10431;DHT22;5262;59.958;17.726;2024-02-21T00:34:16;-0.80;99.90
10431;DHT22;5262;59.958;17.726;2024-02-21T00:36:41;-0.80;99.90
10431;DHT22;5262;59.958;17.726;2024-02-21T00:39:07;-0.70;99.90
10431;DHT22;5262;59.958;17.726;2024-02-21T00:41:33;-0.80;99.90
10431;DHT22;5262;59.958;17.726;2024-02-21T00:43:59;-0.80;99.90
10431;DHT22;5262;59.958;17.726;2024-02-21T00:46:24;-0.80;99.90
10431;DHT22;5262;59.958;17.726;2024-02-21T00:48:50;-0.70;99.90
10431;DHT22;5262;59.958;17.726;2024-02-21T00:51:16;-0.80;99.90
10431;DHT22;5262;59.958;17.726;2024-02-21T00:53:42;-0.80;99.90
10431;DHT22;5262;59.958;17.726;2024-02-21T00:56:08;-0.80;99.90
10431;DHT22;5262;59.958;17.726;2024-02-21T00:58:34;-0.80;99.90
10431;DHT22;5262;59.958;17.726;2024-02-21T01:01:03;-0.70;99.90
10431;DHT22;5262;59.958;17.726;2024-02-21T01:03:28;-0.70;99.90
10431;DHT22;5262;59.958;17.726;2024-02-21T01:05:54;-0.70;99.90
10431;DHT22;5262;59.958;17.726;2024-02-21T01:08:20;-0.70;99.90
10431;DHT22;5262;59.958;17.726;2024-02-21T01:10:45;-0.70;99.90
10431;DHT22;5262;59.958;17.726;2024-02-21T01:13:11;-0.70;99.90
10431;DHT22;5262;59.958;17.726;2024-02-21T01:15:36;-0.70;99.90
10431;DHT22;5262;59.958;17.726;2024-02-21T01:18:02;-0.70;99.90
10431;DHT22;5262;59.958;17.726;2024-02-21T01:20:28;-0.70;99.90
10431;DHT22;5262;59.958;17.726;2024-02-21T01:22:53;-0.70;99.90
10431;DHT22;5262;59.958;17.726;2024-02-21T01:25:19;-0.70;99.90
10431;DHT22;5262;59.958;17.726;2024-02-21T01:27:45;-0.70;99.90
10431;DHT22;5262;59.958;17.726;2024-02-21T01:30:11;-0.70;99.90
10431;DHT22;5262;59.958;17.726;2024-02-21T01:32:36;-0.70;99.90
10431;DHT22;5262;59.958;17.726;2024-02-21T01:35:02;-0.70;99.90
10431;DHT22;5262;59.958;17.726;2024-02-21T01:37:28;-0.70;99.90
10431;DHT22;5262;59.958;17.726;2024-02-21T01:39:53;-0.60;99.90
10431;DHT22;5262;59.958;17.726;2024-02-21T01:42:19;-0.70;99.90
10431;DHT22;5262;59.958;17.726;2024-02-21T01:44:45;-0.70;99.90
10431;DHT22;5262;59.958;17.726;2024-02-21T01:47:12;-0.60;99.90
10431;DHT22;5262;59.958;17.726;2024-02-21T01:49:40;-0.70;99.90
10431;DHT22;5262;59.958;17.726;2024-02-21T01:52:07;-0.60;99.90
10431;DHT22;5262;59.958;17.726;2024-02-21T01:54:34;-0.60;99.90
10431;DHT22;5262;59.958;17.726;2024-02-21T01:57:00;-0.60;99.90
10431;DHT22;5262;59.958;17.726;2024-02-21T01:59:26;-0.60;99.90
10431;DHT22;5262;59.958;17.726;2024-02-21T02:01:52;-0.60;99.90
10431;DHT22;5262;59.958;17.726;2024-02-21T02:04:19;-0.70;99.90
10431;DHT22;5262;59.958;17.726;2024-02-21T02:06:45;-0.70;99.90
10431;DHT22;5262;59.958;17.726;2024-02-21T02:09:11;-0.60;99.90
10431;DHT22;5262;59.958;17.726;2024-02-21T02:11:37;-0.60;99.90
10431;DHT22;5262;59.958;17.726;2024-02-21T02:14:03;-0.60;99.90
10431;DHT22;5262;59.958;17.726;2024-02-21T02:16:28;-0.60;99.90
10431;DHT22;5262;59.958;17.726;2024-02-21T02:18:54;-0.60;99.90
10431;DHT22;5262;59.958;17.726;2024-02-21T02:21:29;-0.60;99.90
10431;DHT22;5262;59.958;17.726;2024-02-21T02:23:55;-0.50;99.90
10431;DHT22;5262;59.958;17.726;2024-02-21T02:26:20;-0.50;99.90
10431;DHT22;5262;59.958;17.726;2024-02-21T02:28:46;-0.50;99.90
10431;DHT22;5262;59.958;17.726;2024-02-21T02:31:12;-0.50;99.90
10431;DHT22;5262;59.958;17.726;2024-02-21T02:33:37;-0.50;99.90
10431;DHT22;5262;59.958;17.726;2024-02-21T02:36:03;-0.50;99.90
10431;DHT22;5262;59.958;17.726;2024-02-21T02:38:29;-0.40;99.90
10431;DHT22;5262;59.958;17.726;2024-02-21T02:40:55;-0.40;99.90
10431;DHT22;5262;59.958;17.726;2024-02-21T02:43:20;-0.40;99.90
10431;DHT22;5262;59.958;17.726;2024-02-21T02:45:46;-0.40;99.90
10431;DHT22;5262;59.958;17.726;2024-02-21T02:48:11;-0.40;99.90
10431;DHT22;5262;59.958;17.726;2024-02-21T02:50:37;-0.30;99.90
10431;DHT22;5262;59.958;17.726;2024-02-21T02:53:03;-0.30;99.90
10431;DHT22;5262;59.958;17.726;2024-02-21T02:55:28;-0.30;99.90
10431;DHT22;5262;59.958;17.726;2024-02-21T02:57:54;-0.30;99.90
10431;DHT22;5262;59.958;17.726;2024-02-21T03:00:21;-0.30;99.90
10431;DHT22;5262;59.958;17.726;2024-02-21T03:02:49;-0.20;99.90
10431;DHT22;5262;59.958;17.726;2024-02-21T03:05:16;-0.30;99.90
10431;DHT22;5262;59.958;17.726;2024-02-21T03:07:43;-0.20;99.90
10431;DHT22;5262;59.958;17.726;2024-02-21T03:10:09;-0.20;99.90
10431;DHT22;5262;59.958;17.726;2024-02-21T03:12:35;-0.20;99.90
10431;DHT22;5262;59.958;17.726;2024-02-21T03:15:01;-0.20;99.90
10431;DHT22;5262;59.958;17.726;2024-02-21T03:17:26;-0.20;99.90
10431;DHT22;5262;59.958;17.726;2024-02-21T03:19:53;-0.20;99.90
10431;DHT22;5262;59.958;17.726;2024-02-21T03:22:21;-0.10;99.90
10431;DHT22;5262;59.958;17.726;2024-02-21T03:24:46;-0.10;99.90
10431;DHT22;5262;59.958;17.726;2024-02-21T03:27:12;-0.20;99.90
10431;DHT22;5262;59.958;17.726;2024-02-21T03:29:38;-0.10;99.90
10431;DHT22;5262;59.958;17.726;2024-02-21T03:32:03;-0.10;99.90
10431;DHT22;5262;59.958;17.726;2024-02-21T03:34:29;-0.10;99.90
10431;DHT22;5262;59.958;17.726;2024-02-21T03:36:55;-0.10;99.90
10431;DHT22;5262;59.958;17.726;2024-02-21T03:39:20;-0.10;99.90
10431;DHT22;5262;59.958;17.726;2024-02-21T03:41:47;-0.10;99.90
10431;DHT22;5262;59.958;17.726;2024-02-21T03:44:12;-0.10;99.90
10431;DHT22;5262;59.958;17.726;2024-02-21T03:46:38;-0.10;99.90
10431;DHT22;5262;59.958;17.726;2024-02-21T03:49:04;-0.10;99.90
10431;DHT22;5262;59.958;17.726;2024-02-21T03:51:29;0.00;99.90
10431;DHT22;5262;59.958;17.726;2024-02-21T03:53:55;0.00;99.90
10431;DHT22;5262;59.958;17.726;2024-02-21T03:56:21;0.00;99.90
10431;DHT22;5262;59.958;17.726;2024-02-21T03:58:46;0.00;99.90
10431;DHT22;5262;59.958;17.726;2024-02-21T04:01:14;0.00;99.90
10431;DHT22;5262;59.958;17.726;2024-02-21T04:03:40;0.10;99.90
10431;DHT22;5262;59.958;17.726;2024-02-21T04:06:06;0.10;99.90
10431;DHT22;5262;59.958;17.726;2024-02-21T04:08:31;0.10;99.90
10431;DHT22;5262;59.958;17.726;2024-02-21T04:10:57;0.10;99.90
10431;DHT22;5262;59.958;17.726;2024-02-21T04:13:25;0.10;99.90
10431;DHT22;5262;59.958;17.726;2024-02-21T04:15:51;0.10;99.90
10431;DHT22;5262;59.958;17.726;2024-02-21T04:18:17;0.10;99.90
10431;DHT22;5262;59.958;17.726;2024-02-21T04:20:45;0.10;99.90
10431;DHT22;5262;59.958;17.726;2024-02-21T04:23:11;0.20;99.90
10431;DHT22;5262;59.958;17.726;2024-02-21T04:25:36;0.20;99.90
10431;DHT22;5262;59.958;17.726;2024-02-21T04:28:02;0.20;99.90
10431;DHT22;5262;59.958;17.726;2024-02-21T04:30:28;0.20;99.90
10431;DHT22;5262;59.958;17.726;2024-02-21T04:32:54;0.20;99.90
10431;DHT22;5262;59.958;17.726;2024-02-21T04:35:19;0.20;99.90
10431;DHT22;5262;59.958;17.726;2024-02-21T04:37:45;0.20;99.90
10431;DHT22;5262;59.958;17.726;2024-02-21T04:40:11;0.20;99.90
10431;DHT22;5262;59.958;17.726;2024-02-21T04:42:37;0.20;99.90
10431;DHT22;5262;59.958;17.726;2024-02-21T04:45:03;0.20;99.90
10431;DHT22;5262;59.958;17.726;2024-02-21T04:47:29;0.20;99.90
10431;DHT22;5262;59.958;17.726;2024-02-21T04:49:55;0.20;99.90
10431;DHT22;5262;59.958;17.726;2024-02-21T04:52:20;0.20;99.90
10431;DHT22;5262;59.958;17.726;2024-02-21T04:54:46;0.30;99.90
10431;DHT22;5262;59.958;17.726;2024-02-21T04:57:12;0.30;99.90
10431;DHT22;5262;59.958;17.726;2024-02-21T04:59:45;0.30;99.90
10431;DHT22;5262;59.958;17.726;2024-02-21T05:02:12;0.20;99.90
10431;DHT22;5262;59.958;17.726;2024-02-21T05:04:38;0.30;99.90
10431;DHT22;5262;59.958;17.726;2024-02-21T05:07:04;0.30;99.90
10431;DHT22;5262;59.958;17.726;2024-02-21T05:09:30;0.30;99.90
10431;DHT22;5262;59.958;17.726;2024-02-21T05:11:56;0.30;99.90
10431;DHT22;5262;59.958;17.726;2024-02-21T05:14:23;0.30;99.90
10431;DHT22;5262;59.958;17.726;2024-02-21T05:16:49;0.30;99.90
10431;DHT22;5262;59.958;17.726;2024-02-21T05:19:15;0.30;99.90
10431;DHT22;5262;59.958;17.726;2024-02-21T05:21:40;0.30;99.90
10431;DHT22;5262;59.958;17.726;2024-02-21T05:24:06;0.30;99.90
10431;DHT22;5262;59.958;17.726;2024-02-21T05:26:32;0.30;99.90
10431;DHT22;5262;59.958;17.726;2024-02-21T05:28:57;0.30;99.90
10431;DHT22;5262;59.958;17.726;2024-02-21T05:31:24;0.30;99.90
10431;DHT22;5262;59.958;17.726;2024-02-21T05:33:50;0.30;99.90
10431;DHT22;5262;59.958;17.726;2024-02-21T05:36:16;0.30;99.90
10431;DHT22;5262;59.958;17.726;2024-02-21T05:38:42;0.30;99.90
10431;DHT22;5262;59.958;17.726;2024-02-21T05:41:07;0.40;99.90
10431;DHT22;5262;59.958;17.726;2024-02-21T05:43:33;0.40;99.90
10431;DHT22;5262;59.958;17.726;2024-02-21T05:45:59;0.40;99.90
10431;DHT22;5262;59.958;17.726;2024-02-21T05:48:25;0.30;99.90
10431;DHT22;5262;59.958;17.726;2024-02-21T05:50:50;0.30;99.90
10431;DHT22;5262;59.958;17.726;2024-02-21T05:53:16;0.30;99.90
10431;DHT22;5262;59.958;17.726;2024-02-21T05:55:42;0.30;99.90
10431;DHT22;5262;59.958;17.726;2024-02-21T05:58:07;0.30;99.90
10431;DHT22;5262;59.958;17.726;2024-02-21T06:00:37;0.30;99.90
10431;DHT22;5262;59.958;17.726;2024-02-21T06:03:03;0.30;99.90
10431;DHT22;5262;59.958;17.726;2024-02-21T06:05:28;0.40;99.90
10431;DHT22;5262;59.958;17.726;2024-02-21T06:07:54;0.40;99.90
10431;DHT22;5262;59.958;17.726;2024-02-21T06:10:20;0.30;99.90
10431;DHT22;5262;59.958;17.726;2024-02-21T06:12:46;0.30;99.90
10431;DHT22;5262;59.958;17.726;2024-02-21T06:15:11;0.30;99.90
10431;DHT22;5262;59.958;17.726;2024-02-21T06:17:37;0.40;99.90
10431;DHT22;5262;59.958;17.726;2024-02-21T06:20:03;0.40;99.90
10431;DHT22;5262;59.958;17.726;2024-02-21T06:22:30;0.40;99.90
10431;DHT22;5262;59.958;17.726;2024-02-21T06:24:56;0.40;99.90
10431;DHT22;5262;59.958;17.726;2024-02-21T06:27:21;0.40;99.90
10431;DHT22;5262;59.958;17.726;2024-02-21T06:29:47;0.40;99.90
10431;DHT22;5262;59.958;17.726;2024-02-21T06:32:13;0.40;99.90
10431;DHT22;5262;59.958;17.726;2024-02-21T06:34:38;0.40;99.90
10431;DHT22;5262;59.958;17.726;2024-02-21T06:37:04;0.50;99.90
10431;DHT22;5262;59.958;17.726;2024-02-21T06:39:29;0.50;99.90
10431;DHT22;5262;59.958;17.726;2024-02-21T06:41:55;0.50;99.90
10431;DHT22;5262;59.958;17.726;2024-02-21T06:44:22;0.50;99.90
10431;DHT22;5262;59.958;17.726;2024-02-21T06:46:48;0.50;99.90
10431;DHT22;5262;59.958;17.726;2024-02-21T06:49:13;0.50;99.90
10431;DHT22;5262;59.958;17.726;2024-02-21T06:51:44;0.50;99.90
10431;DHT22;5262;59.958;17.726;2024-02-21T06:54:10;0.50;99.90
10431;DHT22;5262;59.958;17.726;2024-02-21T06:56:37;0.60;99.90
10431;DHT22;5262;59.958;17.726;2024-02-21T06:59:03;0.50;99.90
10431;DHT22;5262;59.958;17.726;2024-02-21T07:01:30;0.60;99.90
10431;DHT22;5262;59.958;17.726;2024-02-21T07:03:56;0.60;99.90
10431;DHT22;5262;59.958;17.726;2024-02-21T07:06:22;0.60;99.90
10431;DHT22;5262;59.958;17.726;2024-02-21T07:08:48;0.60;99.90
10431;DHT22;5262;59.958;17.726;2024-02-21T07:11:13;0.60;99.90
10431;DHT22;5262;59.958;17.726;2024-02-21T07:13:39;0.60;99.90
10431;DHT22;5262;59.958;17.726;2024-02-21T07:16:06;0.70;99.90
10431;DHT22;5262;59.958;17.726;2024-02-21T07:18:32;0.70;99.90
10431;DHT22;5262;59.958;17.726;2024-02-21T07:20:58;0.70;99.90
10431;DHT22;5262;59.958;17.726;2024-02-21T07:23:24;0.70;99.90
10431;DHT22;5262;59.958;17.726;2024-02-21T07:25:49;0.70;99.90
10431;DHT22;5262;59.958;17.726;2024-02-21T07:28:15;0.70;99.90
10431;DHT22;5262;59.958;17.726;2024-02-21T07:30:42;0.80;99.90
10431;DHT22;5262;59.958;17.726;2024-02-21T07:33:08;0.90;99.90
10431;DHT22;5262;59.958;17.726;2024-02-21T07:35:33;0.80;99.90
10431;DHT22;5262;59.958;17.726;2024-02-21T07:37:59;0.80;99.90
10431;DHT22;5262;59.958;17.726;2024-02-21T07:40:25;0.80;99.90
10431;DHT22;5262;59.958;17.726;2024-02-21T07:42:50;0.90;99.90
10431;DHT22;5262;59.958;17.726;2024-02-21T07:45:16;0.80;99.90
10431;DHT22;5262;59.958;17.726;2024-02-21T07:47:43;0.80;99.90
10431;DHT22;5262;59.958;17.726;2024-02-21T07:50:09;0.90;99.90
10431;DHT22;5262;59.958;17.726;2024-02-21T07:52:35;0.90;99.90
10431;DHT22;5262;59.958;17.726;2024-02-21T07:55:01;0.90;99.90
10431;DHT22;5262;59.958;17.726;2024-02-21T07:57:26;0.90;99.90
10431;DHT22;5262;59.958;17.726;2024-02-21T07:59:52;1.00;99.90
10431;DHT22;5262;59.958;17.726;2024-02-21T08:02:18;1.00;99.90
10431;DHT22;5262;59.958;17.726;2024-02-21T08:04:43;1.00;99.90
10431;DHT22;5262;59.958;17.726;2024-02-21T08:07:09;1.00;99.90
10431;DHT22;5262;59.958;17.726;2024-02-21T08:09:35;1.00;99.90
10431;DHT22;5262;59.958;17.726;2024-02-21T08:12:04;1.00;99.90
10431;DHT22;5262;59.958;17.726;2024-02-21T08:14:29;1.00;99.90
10431;DHT22;5262;59.958;17.726;2024-02-21T08:16:55;1.00;99.90
10431;DHT22;5262;59.958;17.726;2024-02-21T08:19:21;1.10;99.90
10431;DHT22;5262;59.958;17.726;2024-02-21T08:21:48;1.10;99.90
10431;DHT22;5262;59.958;17.726;2024-02-21T08:24:14;1.20;99.90
10431;DHT22;5262;59.958;17.726;2024-02-21T08:26:43;1.10;99.90
10431;DHT22;5262;59.958;17.726;2024-02-21T08:29:10;1.10;99.90
10431;DHT22;5262;59.958;17.726;2024-02-21T08:31:37;1.20;99.90
10431;DHT22;5262;59.958;17.726;2024-02-21T08:34:03;1.20;99.90
10431;DHT22;5262;59.958;17.726;2024-02-21T08:36:33;1.20;99.90
10431;DHT22;5262;59.958;17.726;2024-02-21T08:39:01;1.20;99.90
10431;DHT22;5262;59.958;17.726;2024-02-21T08:41:30;1.20;99.90
10431;DHT22;5262;59.958;17.726;2024-02-21T08:43:56;1.30;99.90
10431;DHT22;5262;59.958;17.726;2024-02-21T08:46:22;1.20;99.90
10431;DHT22;5262;59.958;17.726;2024-02-21T08:48:50;1.30;99.90
10431;DHT22;5262;59.958;17.726;2024-02-21T08:51:17;1.30;99.90
10431;DHT22;5262;59.958;17.726;2024-02-21T08:53:43;1.30;99.90
10431;DHT22;5262;59.958;17.726;2024-02-21T08:56:09;1.40;99.90
10431;DHT22;5262;59.958;17.726;2024-02-21T08:58:36;1.40;99.90
10431;DHT22;5262;59.958;17.726;2024-02-21T09:01:03;1.40;99.90
10431;DHT22;5262;59.958;17.726;2024-02-21T09:03:33;1.40;99.90
10431;DHT22;5262;59.958;17.726;2024-02-21T09:05:59;1.50;99.90
10431;DHT22;5262;59.958;17.726;2024-02-21T09:08:26;1.50;99.90
10431;DHT22;5262;59.958;17.726;2024-02-21T09:10:52;1.50;99.90
10431;DHT22;5262;59.958;17.726;2024-02-21T09:13:17;1.50;99.90
10431;DHT22;5262;59.958;17.726;2024-02-21T09:15:43;1.50;99.90
10431;DHT22;5262;59.958;17.726;2024-02-21T09:18:09;1.60;99.90
10431;DHT22;5262;59.958;17.726;2024-02-21T09:20:35;1.60;99.90
10431;DHT22;5262;59.958;17.726;2024-02-21T09:23:01;1.60;99.90
10431;DHT22;5262;59.958;17.726;2024-02-21T09:25:26;1.60;99.90
10431;DHT22;5262;59.958;17.726;2024-02-21T09:27:54;1.70;99.90
10431;DHT22;5262;59.958;17.726;2024-02-21T09:30:20;1.60;99.90
10431;DHT22;5262;59.958;17.726;2024-02-21T09:32:46;1.70;99.90
10431;DHT22;5262;59.958;17.726;2024-02-21T09:35:12;1.60;99.90
10431;DHT22;5262;59.958;17.726;2024-02-21T09:37:41;1.60;99.90
10431;DHT22;5262;59.958;17.726;2024-02-21T09:40:07;1.50;99.90
10431;DHT22;5262;59.958;17.726;2024-02-21T09:42:40;1.60;99.90
10431;DHT22;5262;59.958;17.726;2024-02-21T09:45:26;1.70;99.90
10431;DHT22;5262;59.958;17.726;2024-02-21T09:50:38;1.70;99.90
10431;DHT22;5262;59.958;17.726;2024-02-21T09:53:06;1.70;99.90
10431;DHT22;5262;59.958;17.726;2024-02-21T09:55:33;1.80;99.90
10431;DHT22;5262;59.958;17.726;2024-02-21T09:58:01;1.80;99.90
10431;DHT22;5262;59.958;17.726;2024-02-21T10:00:27;1.80;99.90
10431;DHT22;5262;59.958;17.726;2024-02-21T10:02:53;1.80;99.90
10431;DHT22;5262;59.958;17.726;2024-02-21T10:05:19;1.80;99.90
10431;DHT22;5262;59.958;17.726;2024-02-21T10:07:45;1.80;99.90
10431;DHT22;5262;59.958;17.726;2024-02-21T10:10:11;1.80;99.90
10431;DHT22;5262;59.958;17.726;2024-02-21T10:12:50;1.90;99.90
10431;DHT22;5262;59.958;17.726;2024-02-21T10:15:23;1.90;99.90
10431;DHT22;5262;59.958;17.726;2024-02-21T10:17:59;1.90;99.90
10431;DHT22;5262;59.958;17.726;2024-02-21T10:20:26;1.90;99.90
10431;DHT22;5262;59.958;17.726;2024-02-21T10:23:12;2.00;99.90
10431;DHT22;5262;59.958;17.726;2024-02-21T10:25:37;2.00;99.90
10431;DHT22;5262;59.958;17.726;2024-02-21T10:28:07;2.10;99.90
10431;DHT22;5262;59.958;17.726;2024-02-21T10:30:33;2.00;99.90
10431;DHT22;5262;59.958;17.726;2024-02-21T10:32:58;2.00;99.90
10431;DHT22;5262;59.958;17.726;2024-02-21T10:35:31;2.00;99.90
10431;DHT22;5262;59.958;17.726;2024-02-21T10:37:57;2.00;99.90
10431;DHT22;5262;59.958;17.726;2024-02-21T10:40:27;2.00;99.90
10431;DHT22;5262;59.958;17.726;2024-02-21T10:42:59;2.00;99.90
10431;DHT22;5262;59.958;17.726;2024-02-21T10:45:34;2.00;99.90
10431;DHT22;5262;59.958;17.726;2024-02-21T10:48:15;2.00;99.90
10431;DHT22;5262;59.958;17.726;2024-02-21T10:51:16;2.10;99.90
10431;DHT22;5262;59.958;17.726;2024-02-21T10:56:34;2.10;99.90
10431;DHT22;5262;59.958;17.726;2024-02-21T10:59:03;2.10;99.90
10431;DHT22;5262;59.958;17.726;2024-02-21T11:01:30;2.10;99.90
10431;DHT22;5262;59.958;17.726;2024-02-21T11:04:02;2.10;99.90
10431;DHT22;5262;59.958;17.726;2024-02-21T11:06:28;2.10;99.90
10431;DHT22;5262;59.958;17.726;2024-02-21T11:09:07;2.10;99.90
10431;DHT22;5262;59.958;17.726;2024-02-21T11:11:34;2.20;99.90
10431;DHT22;5262;59.958;17.726;2024-02-21T11:14:17;2.20;99.90
10431;DHT22;5262;59.958;17.726;2024-02-21T11:16:44;2.20;99.90
10431;DHT22;5262;59.958;17.726;2024-02-21T11:21:44;2.20;99.90
10431;DHT22;5262;59.958;17.726;2024-02-21T11:24:10;2.30;99.90
10431;DHT22;5262;59.958;17.726;2024-02-21T11:26:38;2.20;99.90
10431;DHT22;5262;59.958;17.726;2024-02-21T11:29:04;2.20;99.90
10431;DHT22;5262;59.958;17.726;2024-02-21T11:31:40;2.30;99.90
10431;DHT22;5262;59.958;17.726;2024-02-21T11:34:10;2.30;99.90
10431;DHT22;5262;59.958;17.726;2024-02-21T11:36:45;2.30;99.90
10431;DHT22;5262;59.958;17.726;2024-02-21T11:39:11;2.30;99.90
10431;DHT22;5262;59.958;17.726;2024-02-21T11:41:37;2.30;99.90
10431;DHT22;5262;59.958;17.726;2024-02-21T11:44:03;2.40;99.90
10431;DHT22;5262;59.958;17.726;2024-02-21T11:46:29;2.40;99.90
10431;DHT22;5262;59.958;17.726;2024-02-21T11:48:55;2.50;99.90
10431;DHT22;5262;59.958;17.726;2024-02-21T11:51:26;2.40;99.90
10431;DHT22;5262;59.958;17.726;2024-02-21T11:53:53;2.50;99.90
10431;DHT22;5262;59.958;17.726;2024-02-21T11:56:19;2.50;99.90
10431;DHT22;5262;59.958;17.726;2024-02-21T11:58:48;2.50;99.90
10431;DHT22;5262;59.958;17.726;2024-02-21T12:01:14;2.50;99.90
10431;DHT22;5262;59.958;17.726;2024-02-21T12:03:40;2.50;99.90
10431;DHT22;5262;59.958;17.726;2024-02-21T12:06:07;2.50;99.90
10431;DHT22;5262;59.958;17.726;2024-02-21T12:08:42;2.60;99.90
10431;DHT22;5262;59.958;17.726;2024-02-21T12:11:24;2.70;99.90
10431;DHT22;5262;59.958;17.726;2024-02-21T12:14:03;2.80;99.90
10431;DHT22;5262;59.958;17.726;2024-02-21T12:16:31;2.90;99.90
10431;DHT22;5262;59.958;17.726;2024-02-21T12:18:58;2.90;99.90
10431;DHT22;5262;59.958;17.726;2024-02-21T12:21:25;3.00;99.90
10431;DHT22;5262;59.958;17.726;2024-02-21T12:23:53;2.90;99.90
10431;DHT22;5262;59.958;17.726;2024-02-21T12:26:19;2.80;99.90
10431;DHT22;5262;59.958;17.726;2024-02-21T12:28:44;2.90;99.90
10431;DHT22;5262;59.958;17.726;2024-02-21T12:31:10;2.90;99.90
10431;DHT22;5262;59.958;17.726;2024-02-21T12:33:36;3.00;99.90
10431;DHT22;5262;59.958;17.726;2024-02-21T12:36:02;3.00;99.90
10431;DHT22;5262;59.958;17.726;2024-02-21T12:38:29;3.10;99.90
10431;DHT22;5262;59.958;17.726;2024-02-21T12:40:55;3.10;99.90
10431;DHT22;5262;59.958;17.726;2024-02-21T12:43:22;3.10;99.90
10431;DHT22;5262;59.958;17.726;2024-02-21T12:45:48;3.10;99.90
10431;DHT22;5262;59.958;17.726;2024-02-21T12:48:14;3.20;99.90
10431;DHT22;5262;59.958;17.726;2024-02-21T12:50:50;3.20;99.90
10431;DHT22;5262;59.958;17.726;2024-02-21T12:53:21;3.10;99.90
10431;DHT22;5262;59.958;17.726;2024-02-21T12:55:48;3.10;99.90
10431;DHT22;5262;59.958;17.726;2024-02-21T12:58:14;3.10;99.90
10431;DHT22;5262;59.958;17.726;2024-02-21T13:00:40;3.10;99.90
10431;DHT22;5262;59.958;17.726;2024-02-21T13:03:06;3.20;99.90
10431;DHT22;5262;59.958;17.726;2024-02-21T13:05:32;3.20;99.90
10431;DHT22;5262;59.958;17.726;2024-02-21T13:07:58;3.10;99.90
10431;DHT22;5262;59.958;17.726;2024-02-21T13:10:24;3.10;99.90
10431;DHT22;5262;59.958;17.726;2024-02-21T13:12:50;3.10;99.90
10431;DHT22;5262;59.958;17.726;2024-02-21T13:15:16;3.10;99.90
10431;DHT22;5262;59.958;17.726;2024-02-21T13:17:44;3.10;99.90
10431;DHT22;5262;59.958;17.726;2024-02-21T13:20:10;3.10;99.90
10431;DHT22;5262;59.958;17.726;2024-02-21T13:22:36;3.00;99.90
10431;DHT22;5262;59.958;17.726;2024-02-21T13:25:02;3.00;99.90
10431;DHT22;5262;59.958;17.726;2024-02-21T13:27:28;3.00;99.90
10431;DHT22;5262;59.958;17.726;2024-02-21T13:29:54;3.00;99.90
10431;DHT22;5262;59.958;17.726;2024-02-21T13:32:19;3.00;99.90
10431;DHT22;5262;59.958;17.726;2024-02-21T13:34:45;3.10;99.90
10431;DHT22;5262;59.958;17.726;2024-02-21T13:37:11;3.10;99.90
10431;DHT22;5262;59.958;17.726;2024-02-21T13:39:37;3.10;99.90
10431;DHT22;5262;59.958;17.726;2024-02-21T13:42:03;3.10;99.90
10431;DHT22;5262;59.958;17.726;2024-02-21T13:44:34;3.10;99.90
10431;DHT22;5262;59.958;17.726;2024-02-21T13:47:00;3.20;99.90
10431;DHT22;5262;59.958;17.726;2024-02-21T13:49:26;3.20;99.90
10431;DHT22;5262;59.958;17.726;2024-02-21T13:51:51;3.20;99.90
10431;DHT22;5262;59.958;17.726;2024-02-21T13:54:17;3.20;99.90
10431;DHT22;5262;59.958;17.726;2024-02-21T13:56:45;3.20;99.90
10431;DHT22;5262;59.958;17.726;2024-02-21T13:59:12;3.20;99.90
10431;DHT22;5262;59.958;17.726;2024-02-21T14:01:39;3.20;99.90
10431;DHT22;5262;59.958;17.726;2024-02-21T14:04:04;3.20;99.90
10431;DHT22;5262;59.958;17.726;2024-02-21T14:06:30;3.20;99.90
10431;DHT22;5262;59.958;17.726;2024-02-21T14:08:56;3.30;99.90
10431;DHT22;5262;59.958;17.726;2024-02-21T14:11:22;3.30;99.90
10431;DHT22;5262;59.958;17.726;2024-02-21T14:13:48;3.20;99.90
10431;DHT22;5262;59.958;17.726;2024-02-21T14:16:14;3.30;99.90
10431;DHT22;5262;59.958;17.726;2024-02-21T14:18:42;3.30;99.90
10431;DHT22;5262;59.958;17.726;2024-02-21T14:21:08;3.30;99.90
10431;DHT22;5262;59.958;17.726;2024-02-21T14:23:38;3.30;99.90
10431;DHT22;5262;59.958;17.726;2024-02-21T14:26:06;3.30;99.90
10431;DHT22;5262;59.958;17.726;2024-02-21T14:28:32;3.30;99.90
10431;DHT22;5262;59.958;17.726;2024-02-21T14:31:01;3.30;99.90
10431;DHT22;5262;59.958;17.726;2024-02-21T14:33:28;3.30;99.90
10431;DHT22;5262;59.958;17.726;2024-02-21T14:35:56;3.30;99.90
10431;DHT22;5262;59.958;17.726;2024-02-21T14:38:22;3.30;99.90
10431;DHT22;5262;59.958;17.726;2024-02-21T14:40:48;3.20;99.90
10431;DHT22;5262;59.958;17.726;2024-02-21T14:43:14;3.20;99.90
10431;DHT22;5262;59.958;17.726;2024-02-21T14:45:39;3.10;99.90
10431;DHT22;5262;59.958;17.726;2024-02-21T14:48:06;3.10;99.90
10431;DHT22;5262;59.958;17.726;2024-02-21T14:50:32;3.00;99.90
10431;DHT22;5262;59.958;17.726;2024-02-21T14:52:57;2.90;99.90
10431;DHT22;5262;59.958;17.726;2024-02-21T14:55:23;2.90;99.90
10431;DHT22;5262;59.958;17.726;2024-02-21T14:57:49;2.80;99.90
10431;DHT22;5262;59.958;17.726;2024-02-21T15:00:15;2.80;99.90
10431;DHT22;5262;59.958;17.726;2024-02-21T15:02:41;2.80;99.90
10431;DHT22;5262;59.958;17.726;2024-02-21T15:05:09;2.80;99.90
10431;DHT22;5262;59.958;17.726;2024-02-21T15:07:34;2.80;99.90
10431;DHT22;5262;59.958;17.726;2024-02-21T15:10:00;2.70;99.90
10431;DHT22;5262;59.958;17.726;2024-02-21T15:12:26;2.70;99.90
10431;DHT22;5262;59.958;17.726;2024-02-21T15:14:52;2.70;99.90
10431;DHT22;5262;59.958;17.726;2024-02-21T15:17:17;2.70;99.90
10431;DHT22;5262;59.958;17.726;2024-02-21T15:19:46;2.70;99.90
10431;DHT22;5262;59.958;17.726;2024-02-21T15:22:13;2.60;99.90
10431;DHT22;5262;59.958;17.726;2024-02-21T15:24:42;2.60;99.90
10431;DHT22;5262;59.958;17.726;2024-02-21T15:27:08;2.60;99.90
10431;DHT22;5262;59.958;17.726;2024-02-21T15:29:34;2.60;99.90
10431;DHT22;5262;59.958;17.726;2024-02-21T15:32:02;2.50;99.90
10431;DHT22;5262;59.958;17.726;2024-02-21T15:34:28;2.50;99.90
10431;DHT22;5262;59.958;17.726;2024-02-21T15:36:53;2.50;99.90
10431;DHT22;5262;59.958;17.726;2024-02-21T15:39:19;2.40;99.90
10431;DHT22;5262;59.958;17.726;2024-02-21T15:41:45;2.30;99.90
10431;DHT22;5262;59.958;17.726;2024-02-21T15:44:10;2.20;99.90
10431;DHT22;5262;59.958;17.726;2024-02-21T15:46:36;2.20;99.90